sensor_id;sensor_type;location;lat;lon;timestamp;temperature;humidity
68026;SHT31;54819;48.030;14.710;2023-01-23T00:01:06;0.35;82.54
68026;SHT31;54819;48.030;14.710;2023-01-23T00:03:35;0.29;82.60
68026;SHT31;54819;48.030;14.710;2023-01-23T00:06:03;0.25;82.70
68026;SHT31;54819;48.030;14.710;2023-01-23T00:08:32;0.21;82.73
68026;SHT31;54819;48.030;14.710;2023-01-23T00:11:04;0.16;82.92
68026;SHT31;54819;48.030;14.710;2023-01-23T00:13:33;0.12;83.07
68026;SHT31;54819;48.030;14.710;2023-01-23T00:16:05;0.10;83.13
68026;SHT31;54819;48.030;14.710;2023-01-23T00:18:33;0.08;83.54
68026;SHT31;54819;48.030;14.710;2023-01-23T00:21:03;0.06;83.55
68026;SHT31;54819;48.030;14.710;2023-01-23T00:23:32;0.06;83.60
68026;SHT31;54819;48.030;14.710;2023-01-23T00:26:06;0.07;83.67
68026;SHT31;54819;48.030;14.710;2023-01-23T00:28:37;0.09;83.65
68026;SHT31;54819;48.030;14.710;2023-01-23T00:31:07;0.09;83.60
68026;SHT31;54819;48.030;14.710;2023-01-23T00:33:41;0.10;83.56
68026;SHT31;54819;48.030;14.710;2023-01-23T00:36:10;0.09;83.46
68026;SHT31;54819;48.030;14.710;2023-01-23T00:38:38;0.09;83.31
68026;SHT31;54819;48.030;14.710;2023-01-23T00:41:06;0.07;83.14
68026;SHT31;54819;48.030;14.710;2023-01-23T00:43:33;0.02;83.24
68026;SHT31;54819;48.030;14.710;2023-01-23T00:46:00;0.01;83.45
68026;SHT31;54819;48.030;14.710;2023-01-23T00:48:27;0.01;83.44
68026;SHT31;54819;48.030;14.710;2023-01-23T00:50:54;0.01;83.59
68026;SHT31;54819;48.030;14.710;2023-01-23T00:53:22;-0.01;83.98
68026;SHT31;54819;48.030;14.710;2023-01-23T00:55:48;-0.01;83.87
68026;SHT31;54819;48.030;14.710;2023-01-23T00:58:15;-0.04;84.84
68026;SHT31;54819;48.030;14.710;2023-01-23T01:00:42;-0.08;84.66
68026;SHT31;54819;48.030;14.710;2023-01-23T01:03:09;-0.13;84.58
68026;SHT31;54819;48.030;14.710;2023-01-23T01:05:35;-0.14;84.59
68026;SHT31;54819;48.030;14.710;2023-01-23T01:08:03;-0.08;84.53
68026;SHT31;54819;48.030;14.710;2023-01-23T01:10:30;-0.02;84.41
68026;SHT31;54819;48.030;14.710;2023-01-23T01:12:59;0.04;84.39
68026;SHT31;54819;48.030;14.710;2023-01-23T01:15:27;0.10;84.31
68026;SHT31;54819;48.030;14.710;2023-01-23T01:17:55;0.19;84.24
68026;SHT31;54819;48.030;14.710;2023-01-23T01:20:23;0.25;84.15
68026;SHT31;54819;48.030;14.710;2023-01-23T01:22:52;0.31;84.09
68026;SHT31;54819;48.030;14.710;2023-01-23T01:25:20;0.40;84.03
68026;SHT31;54819;48.030;14.710;2023-01-23T01:27:47;0.46;84.00
68026;SHT31;54819;48.030;14.710;2023-01-23T01:30:15;0.51;83.87
68026;SHT31;54819;48.030;14.710;2023-01-23T01:32:43;0.57;83.78
68026;SHT31;54819;48.030;14.710;2023-01-23T01:35:10;0.62;83.71
68026;SHT31;54819;48.030;14.710;2023-01-23T01:37:38;0.64;83.62
68026;SHT31;54819;48.030;14.710;2023-01-23T01:40:06;0.66;83.60
68026;SHT31;54819;48.030;14.710;2023-01-23T01:42:39;0.70;83.60
68026;SHT31;54819;48.030;14.710;2023-01-23T01:48:13;0.82;83.36
68026;SHT31;54819;48.030;14.710;2023-01-23T01:50:41;0.85;83.30
68026;SHT31;54819;48.030;14.710;2023-01-23T01:53:08;0.84;83.24
68026;SHT31;54819;48.030;14.710;2023-01-23T01:55:36;0.84;83.11
68026;SHT31;54819;48.030;14.710;2023-01-23T01:58:05;0.79;83.10
68026;SHT31;54819;48.030;14.710;2023-01-23T02:00:32;0.76;83.10
68026;SHT31;54819;48.030;14.710;2023-01-23T02:03:00;0.73;83.10
68026;SHT31;54819;48.030;14.710;2023-01-23T02:10:44;0.66;83.00
68026;SHT31;54819;48.030;14.710;2023-01-23T02:13:23;0.62;83.02
68026;SHT31;54819;48.030;14.710;2023-01-23T02:15:57;0.58;82.99
68026;SHT31;54819;48.030;14.710;2023-01-23T02:18:26;0.56;83.04
68026;SHT31;54819;48.030;14.710;2023-01-23T02:20:55;0.52;83.12
68026;SHT31;54819;48.030;14.710;2023-01-23T02:26:00;0.47;83.19
68026;SHT31;54819;48.030;14.710;2023-01-23T02:28:41;0.42;83.21
68026;SHT31;54819;48.030;14.710;2023-01-23T02:31:15;0.39;83.30
68026;SHT31;54819;48.030;14.710;2023-01-23T02:33:44;0.37;83.30
68026;SHT31;54819;48.030;14.710;2023-01-23T02:36:13;0.34;83.46
68026;SHT31;54819;48.030;14.710;2023-01-23T02:38:50;0.32;83.50
68026;SHT31;54819;48.030;14.710;2023-01-23T02:41:30;0.31;83.57
68026;SHT31;54819;48.030;14.710;2023-01-23T02:44:09;0.26;83.70
68026;SHT31;54819;48.030;14.710;2023-01-23T02:46:44;0.22;83.67
68026;SHT31;54819;48.030;14.710;2023-01-23T02:49:11;0.22;83.76
68026;SHT31;54819;48.030;14.710;2023-01-23T02:51:38;0.21;83.78
68026;SHT31;54819;48.030;14.710;2023-01-23T02:54:05;0.21;83.77
68026;SHT31;54819;48.030;14.710;2023-01-23T02:56:32;0.20;83.82
68026;SHT31;54819;48.030;14.710;2023-01-23T02:58:59;0.21;83.80
68026;SHT31;54819;48.030;14.710;2023-01-23T03:01:45;0.21;83.81
68026;SHT31;54819;48.030;14.710;2023-01-23T03:04:12;0.21;83.70
68026;SHT31;54819;48.030;14.710;2023-01-23T03:06:38;0.19;83.94
68026;SHT31;54819;48.030;14.710;2023-01-23T03:09:10;0.17;83.99
68026;SHT31;54819;48.030;14.710;2023-01-23T03:11:39;0.17;83.97
68026;SHT31;54819;48.030;14.710;2023-01-23T03:14:10;0.16;83.88
68026;SHT31;54819;48.030;14.710;2023-01-23T03:16:43;0.14;83.68
68026;SHT31;54819;48.030;14.710;2023-01-23T03:19:16;0.07;83.53
68026;SHT31;54819;48.030;14.710;2023-01-23T03:21:44;0.03;83.81
68026;SHT31;54819;48.030;14.710;2023-01-23T03:24:12;0.02;83.95
68026;SHT31;54819;48.030;14.710;2023-01-23T03:26:40;0.01;83.95
68026;SHT31;54819;48.030;14.710;2023-01-23T03:29:13;0.01;83.80
68026;SHT31;54819;48.030;14.710;2023-01-23T03:31:59;-0.00;83.78
68026;SHT31;54819;48.030;14.710;2023-01-23T03:34:27;-0.02;84.00
68026;SHT31;54819;48.030;14.710;2023-01-23T03:36:55;-0.02;84.14
68026;SHT31;54819;48.030;14.710;2023-01-23T03:39:23;-0.01;84.18
68026;SHT31;54819;48.030;14.710;2023-01-23T03:42:08;-0.01;84.19
68026;SHT31;54819;48.030;14.710;2023-01-23T03:44:36;-0.01;84.30
68026;SHT31;54819;48.030;14.710;2023-01-23T03:47:03;-0.00;84.22
68026;SHT31;54819;48.030;14.710;2023-01-23T03:49:30;-0.02;84.29
68026;SHT31;54819;48.030;14.710;2023-01-23T03:51:58;-0.03;84.48
68026;SHT31;54819;48.030;14.710;2023-01-23T03:54:25;-0.05;84.48
68026;SHT31;54819;48.030;14.710;2023-01-23T03:56:52;-0.03;84.50
68026;SHT31;54819;48.030;14.710;2023-01-23T03:59:38;-0.00;84.52
68026;SHT31;54819;48.030;14.710;2023-01-23T04:02:05;0.05;84.29
68026;SHT31;54819;48.030;14.710;2023-01-23T04:04:32;0.10;84.21
68026;SHT31;54819;48.030;14.710;2023-01-23T04:07:00;0.15;84.28
68026;SHT31;54819;48.030;14.710;2023-01-23T04:09:28;0.22;84.26
68026;SHT31;54819;48.030;14.710;2023-01-23T04:11:56;0.26;84.30
68026;SHT31;54819;48.030;14.710;2023-01-23T04:14:26;0.34;84.30
68026;SHT31;54819;48.030;14.710;2023-01-23T04:17:03;0.40;84.23
68026;SHT31;54819;48.030;14.710;2023-01-23T04:19:32;0.41;84.20
68026;SHT31;54819;48.030;14.710;2023-01-23T04:21:59;0.41;84.19
68026;SHT31;54819;48.030;14.710;2023-01-23T04:24:29;0.44;84.19
68026;SHT31;54819;48.030;14.710;2023-01-23T04:26:55;0.48;84.10
68026;SHT31;54819;48.030;14.710;2023-01-23T04:29:23;0.50;84.18
68026;SHT31;54819;48.030;14.710;2023-01-23T04:31:50;0.53;84.20
68026;SHT31;54819;48.030;14.710;2023-01-23T04:34:17;0.59;84.12
68026;SHT31;54819;48.030;14.710;2023-01-23T04:36:46;0.65;84.06
68026;SHT31;54819;48.030;14.710;2023-01-23T04:39:13;0.63;83.85
68026;SHT31;54819;48.030;14.710;2023-01-23T04:41:42;0.58;83.79
68026;SHT31;54819;48.030;14.710;2023-01-23T04:44:18;0.59;83.85
68026;SHT31;54819;48.030;14.710;2023-01-23T04:47:14;0.61;83.80
68026;SHT31;54819;48.030;14.710;2023-01-23T04:49:41;0.63;83.70
68026;SHT31;54819;48.030;14.710;2023-01-23T04:52:09;0.61;83.70
68026;SHT31;54819;48.030;14.710;2023-01-23T04:54:38;0.58;83.64
68026;SHT31;54819;48.030;14.710;2023-01-23T04:57:04;0.56;83.65
68026;SHT31;54819;48.030;14.710;2023-01-23T04:59:32;0.49;83.76
68026;SHT31;54819;48.030;14.710;2023-01-23T05:01:58;0.44;83.78
68026;SHT31;54819;48.030;14.710;2023-01-23T05:04:30;0.38;83.85
68026;SHT31;54819;48.030;14.710;2023-01-23T05:06:57;0.34;83.91
68026;SHT31;54819;48.030;14.710;2023-01-23T05:09:24;0.32;83.93
68026;SHT31;54819;48.030;14.710;2023-01-23T05:11:51;0.33;83.90
68026;SHT31;54819;48.030;14.710;2023-01-23T05:14:19;0.32;83.93
68026;SHT31;54819;48.030;14.710;2023-01-23T05:16:48;0.33;83.98
68026;SHT31;54819;48.030;14.710;2023-01-23T05:19:17;0.31;84.05
68026;SHT31;54819;48.030;14.710;2023-01-23T05:21:44;0.31;84.00
68026;SHT31;54819;48.030;14.710;2023-01-23T05:24:14;0.30;83.97
68026;SHT31;54819;48.030;14.710;2023-01-23T05:26:41;0.28;83.95
68026;SHT31;54819;48.030;14.710;2023-01-23T05:29:08;0.28;83.94
68026;SHT31;54819;48.030;14.710;2023-01-23T05:31:39;0.27;84.12
68026;SHT31;54819;48.030;14.710;2023-01-23T05:34:26;0.26;84.20
68026;SHT31;54819;48.030;14.710;2023-01-23T05:36:53;0.24;84.10
68026;SHT31;54819;48.030;14.710;2023-01-23T05:39:20;0.16;83.76
68026;SHT31;54819;48.030;14.710;2023-01-23T05:41:48;0.06;83.92
68026;SHT31;54819;48.030;14.710;2023-01-23T05:44:35;0.02;84.06
68026;SHT31;54819;48.030;14.710;2023-01-23T05:47:05;-0.01;84.01
68026;SHT31;54819;48.030;14.710;2023-01-23T05:49:32;-0.03;84.07
68026;SHT31;54819;48.030;14.710;2023-01-23T05:51:59;-0.07;84.16
68026;SHT31;54819;48.030;14.710;2023-01-23T05:54:26;-0.07;84.61
68026;SHT31;54819;48.030;14.710;2023-01-23T05:56:53;-0.11;85.37
68026;SHT31;54819;48.030;14.710;2023-01-23T05:59:39;-0.13;84.97
68026;SHT31;54819;48.030;14.710;2023-01-23T06:02:40;-0.19;84.60
68026;SHT31;54819;48.030;14.710;2023-01-23T06:05:42;-0.24;84.58
68026;SHT31;54819;48.030;14.710;2023-01-23T06:08:14;-0.28;84.68
68026;SHT31;54819;48.030;14.710;2023-01-23T06:10:41;-0.32;84.70
68026;SHT31;54819;48.030;14.710;2023-01-23T06:13:08;-0.33;84.78
68026;SHT31;54819;48.030;14.710;2023-01-23T06:15:35;-0.33;84.70
68026;SHT31;54819;48.030;14.710;2023-01-23T06:18:07;-0.33;84.93
68026;SHT31;54819;48.030;14.710;2023-01-23T06:20:34;-0.28;84.97
68026;SHT31;54819;48.030;14.710;2023-01-23T06:23:01;-0.24;85.15
68026;SHT31;54819;48.030;14.710;2023-01-23T06:25:28;-0.19;85.24
68026;SHT31;54819;48.030;14.710;2023-01-23T06:27:56;-0.15;85.55
68026;SHT31;54819;48.030;14.710;2023-01-23T06:30:25;-0.13;86.06
68026;SHT31;54819;48.030;14.710;2023-01-23T06:32:52;-0.12;86.17
68026;SHT31;54819;48.030;14.710;2023-01-23T06:35:23;-0.06;86.12
68026;SHT31;54819;48.030;14.710;2023-01-23T06:37:50;-0.01;86.07
68026;SHT31;54819;48.030;14.710;2023-01-23T06:40:18;0.09;85.94
68026;SHT31;54819;48.030;14.710;2023-01-23T06:42:59;0.18;85.86
68026;SHT31;54819;48.030;14.710;2023-01-23T06:45:25;0.26;85.85
68026;SHT31;54819;48.030;14.710;2023-01-23T06:47:52;0.35;85.78
68026;SHT31;54819;48.030;14.710;2023-01-23T06:50:20;0.43;85.77
68026;SHT31;54819;48.030;14.710;2023-01-23T06:52:47;0.48;85.74
68026;SHT31;54819;48.030;14.710;2023-01-23T06:55:14;0.55;85.63
68026;SHT31;54819;48.030;14.710;2023-01-23T06:57:41;0.52;85.69
68026;SHT31;54819;48.030;14.710;2023-01-23T07:00:08;0.50;85.56
68026;SHT31;54819;48.030;14.710;2023-01-23T07:02:37;0.49;85.85
68026;SHT31;54819;48.030;14.710;2023-01-23T07:05:05;0.48;85.86
68026;SHT31;54819;48.030;14.710;2023-01-23T07:07:32;0.48;85.83
68026;SHT31;54819;48.030;14.710;2023-01-23T07:09:59;0.46;86.11
68026;SHT31;54819;48.030;14.710;2023-01-23T07:12:26;0.49;85.66
68026;SHT31;54819;48.030;14.710;2023-01-23T07:14:53;0.50;85.58
68026;SHT31;54819;48.030;14.710;2023-01-23T07:17:27;0.44;86.02
68026;SHT31;54819;48.030;14.710;2023-01-23T07:19:54;0.44;85.69
68026;SHT31;54819;48.030;14.710;2023-01-23T07:22:21;0.43;85.62
68026;SHT31;54819;48.030;14.710;2023-01-23T07:24:48;0.40;85.81
68026;SHT31;54819;48.030;14.710;2023-01-23T07:27:15;0.37;85.90
68026;SHT31;54819;48.030;14.710;2023-01-23T07:29:42;0.39;85.60
68026;SHT31;54819;48.030;14.710;2023-01-23T07:32:09;0.42;85.43
68026;SHT31;54819;48.030;14.710;2023-01-23T07:34:36;0.47;85.41
68026;SHT31;54819;48.030;14.710;2023-01-23T07:37:03;0.52;85.39
68026;SHT31;54819;48.030;14.710;2023-01-23T07:39:30;0.56;85.40
68026;SHT31;54819;48.030;14.710;2023-01-23T07:41:57;0.62;85.30
68026;SHT31;54819;48.030;14.710;2023-01-23T07:44:26;0.66;85.28
68026;SHT31;54819;48.030;14.710;2023-01-23T07:46:55;0.68;85.14
68026;SHT31;54819;48.030;14.710;2023-01-23T07:49:22;0.70;85.16
68026;SHT31;54819;48.030;14.710;2023-01-23T07:51:48;0.72;85.12
68026;SHT31;54819;48.030;14.710;2023-01-23T07:54:15;0.74;85.10
68026;SHT31;54819;48.030;14.710;2023-01-23T07:56:42;0.77;85.12
68026;SHT31;54819;48.030;14.710;2023-01-23T07:59:10;0.82;85.06
68026;SHT31;54819;48.030;14.710;2023-01-23T08:01:37;0.89;84.95
68026;SHT31;54819;48.030;14.710;2023-01-23T08:04:04;0.92;84.80
68026;SHT31;54819;48.030;14.710;2023-01-23T08:06:31;0.96;84.77
68026;SHT31;54819;48.030;14.710;2023-01-23T08:08:59;0.99;84.71
68026;SHT31;54819;48.030;14.710;2023-01-23T08:11:26;0.96;84.72
68026;SHT31;54819;48.030;14.710;2023-01-23T08:13:53;0.92;84.95
68026;SHT31;54819;48.030;14.710;2023-01-23T08:16:20;0.92;84.88
68026;SHT31;54819;48.030;14.710;2023-01-23T08:18:47;0.81;85.02
68026;SHT31;54819;48.030;14.710;2023-01-23T08:21:14;0.78;85.09
68026;SHT31;54819;48.030;14.710;2023-01-23T08:23:41;0.75;85.19
68026;SHT31;54819;48.030;14.710;2023-01-23T08:26:09;0.75;85.25
68026;SHT31;54819;48.030;14.710;2023-01-23T08:28:36;0.78;85.19
68026;SHT31;54819;48.030;14.710;2023-01-23T08:31:04;0.84;85.07
68026;SHT31;54819;48.030;14.710;2023-01-23T08:33:33;0.88;85.00
68026;SHT31;54819;48.030;14.710;2023-01-23T08:36:01;0.90;84.99
68026;SHT31;54819;48.030;14.710;2023-01-23T08:38:29;0.87;84.95
68026;SHT31;54819;48.030;14.710;2023-01-23T08:40:57;0.83;85.19
68026;SHT31;54819;48.030;14.710;2023-01-23T08:43:26;0.84;85.01
68026;SHT31;54819;48.030;14.710;2023-01-23T08:45:54;0.80;84.92
68026;SHT31;54819;48.030;14.710;2023-01-23T08:48:23;0.74;85.32
68026;SHT31;54819;48.030;14.710;2023-01-23T08:50:56;0.74;85.46
68026;SHT31;54819;48.030;14.710;2023-01-23T08:53:28;0.76;85.61
68026;SHT31;54819;48.030;14.710;2023-01-23T08:55:59;0.85;85.12
68026;SHT31;54819;48.030;14.710;2023-01-23T08:58:27;0.89;84.85
68026;SHT31;54819;48.030;14.710;2023-01-23T09:00:54;0.99;84.95
68026;SHT31;54819;48.030;14.710;2023-01-23T09:03:21;1.16;84.87
68026;SHT31;54819;48.030;14.710;2023-01-23T09:05:49;1.35;84.52
68026;SHT31;54819;48.030;14.710;2023-01-23T09:08:16;1.52;83.87
68026;SHT31;54819;48.030;14.710;2023-01-23T09:10:43;1.64;83.48
68026;SHT31;54819;48.030;14.710;2023-01-23T09:13:10;1.77;83.50
68026;SHT31;54819;48.030;14.710;2023-01-23T09:15:37;1.88;83.50
68026;SHT31;54819;48.030;14.710;2023-01-23T09:18:05;2.01;83.47
68026;SHT31;54819;48.030;14.710;2023-01-23T09:20:32;2.08;83.24
68026;SHT31;54819;48.030;14.710;2023-01-23T09:22:59;2.10;83.24
68026;SHT31;54819;48.030;14.710;2023-01-23T09:25:26;2.11;83.17
68026;SHT31;54819;48.030;14.710;2023-01-23T09:27:53;2.08;83.02
68026;SHT31;54819;48.030;14.710;2023-01-23T09:30:20;2.06;83.06
68026;SHT31;54819;48.030;14.710;2023-01-23T09:32:47;2.04;83.10
68026;SHT31;54819;48.030;14.710;2023-01-23T09:35:14;2.04;83.13
68026;SHT31;54819;48.030;14.710;2023-01-23T09:37:41;2.02;82.98
68026;SHT31;54819;48.030;14.710;2023-01-23T09:40:45;2.00;82.97
68026;SHT31;54819;48.030;14.710;2023-01-23T09:43:22;1.99;83.09
68026;SHT31;54819;48.030;14.710;2023-01-23T09:46:05;1.96;83.08
68026;SHT31;54819;48.030;14.710;2023-01-23T09:53:43;1.84;83.27
68026;SHT31;54819;48.030;14.710;2023-01-23T09:56:13;1.82;83.40
68026;SHT31;54819;48.030;14.710;2023-01-23T09:58:56;1.91;83.51
68026;SHT31;54819;48.030;14.710;2023-01-23T10:01:25;2.03;83.59
68026;SHT31;54819;48.030;14.710;2023-01-23T10:03:56;2.04;83.61
68026;SHT31;54819;48.030;14.710;2023-01-23T10:06:29;2.03;83.72
68026;SHT31;54819;48.030;14.710;2023-01-23T10:11:36;2.19;83.67
68026;SHT31;54819;48.030;14.710;2023-01-23T10:14:38;2.33;83.55
68026;SHT31;54819;48.030;14.710;2023-01-23T10:25:25;2.69;83.00
68026;SHT31;54819;48.030;14.710;2023-01-23T10:27:56;2.73;82.81
68026;SHT31;54819;48.030;14.710;2023-01-23T10:30:32;2.72;82.69
68026;SHT31;54819;48.030;14.710;2023-01-23T10:33:14;2.72;82.77
68026;SHT31;54819;48.030;14.710;2023-01-23T10:40:53;2.37;83.05
68026;SHT31;54819;48.030;14.710;2023-01-23T10:43:41;2.32;83.12
68026;SHT31;54819;48.030;14.710;2023-01-23T10:46:20;2.23;83.49
68026;SHT31;54819;48.030;14.710;2023-01-23T10:48:49;2.25;83.39
68026;SHT31;54819;48.030;14.710;2023-01-23T10:51:31;2.20;83.32
68026;SHT31;54819;48.030;14.710;2023-01-23T10:56:32;2.00;83.57
68026;SHT31;54819;48.030;14.710;2023-01-23T10:59:00;1.96;83.77
68026;SHT31;54819;48.030;14.710;2023-01-23T11:01:29;1.95;83.78
68026;SHT31;54819;48.030;14.710;2023-01-23T11:04:08;1.97;83.82
68026;SHT31;54819;48.030;14.710;2023-01-23T11:06:37;2.00;83.99
68026;SHT31;54819;48.030;14.710;2023-01-23T11:09:07;2.06;83.97
68026;SHT31;54819;48.030;14.710;2023-01-23T11:11:58;2.24;83.57
68026;SHT31;54819;48.030;14.710;2023-01-23T11:14:26;2.41;83.23
68026;SHT31;54819;48.030;14.710;2023-01-23T11:17:03;2.43;83.02
68026;SHT31;54819;48.030;14.710;2023-01-23T11:19:39;2.51;83.02
68026;SHT31;54819;48.030;14.710;2023-01-23T11:27:57;2.80;81.85
68026;SHT31;54819;48.030;14.710;2023-01-23T11:30:40;2.88;81.91
68026;SHT31;54819;48.030;14.710;2023-01-23T11:33:35;2.94;81.34
68026;SHT31;54819;48.030;14.710;2023-01-23T11:36:17;2.93;81.36
68026;SHT31;54819;48.030;14.710;2023-01-23T11:38:55;2.93;81.01
68026;SHT31;54819;48.030;14.710;2023-01-23T11:41:30;2.91;81.21
68026;SHT31;54819;48.030;14.710;2023-01-23T11:44:00;2.90;81.22
68026;SHT31;54819;48.030;14.710;2023-01-23T12:01:15;2.36;82.08
68026;SHT31;54819;48.030;14.710;2023-01-23T12:06:13;2.34;82.35
68026;SHT31;54819;48.030;14.710;2023-01-23T12:30:09;2.35;82.17
68026;SHT31;54819;48.030;14.710;2023-01-23T12:32:52;2.33;82.34
68026;SHT31;54819;48.030;14.710;2023-01-23T12:38:09;2.27;82.48
68026;SHT31;54819;48.030;14.710;2023-01-23T12:41:12;2.23;82.65
68026;SHT31;54819;48.030;14.710;2023-01-23T12:43:49;2.21;82.78
68026;SHT31;54819;48.030;14.710;2023-01-23T12:46:24;2.21;82.90
68026;SHT31;54819;48.030;14.710;2023-01-23T12:51:49;2.22;83.01
68026;SHT31;54819;48.030;14.710;2023-01-23T12:54:36;2.24;83.17
68026;SHT31;54819;48.030;14.710;2023-01-23T12:57:08;2.29;83.15
68026;SHT31;54819;48.030;14.710;2023-01-23T12:59:53;2.35;83.01
68026;SHT31;54819;48.030;14.710;2023-01-23T13:02:36;2.35;83.02
68026;SHT31;54819;48.030;14.710;2023-01-23T13:05:14;2.36;83.05
68026;SHT31;54819;48.030;14.710;2023-01-23T13:10:38;2.40;82.91
68026;SHT31;54819;48.030;14.710;2023-01-23T13:13:40;2.41;82.96
68026;SHT31;54819;48.030;14.710;2023-01-23T13:16:10;2.44;83.00
68026;SHT31;54819;48.030;14.710;2023-01-23T13:18:40;2.48;83.09
68026;SHT31;54819;48.030;14.710;2023-01-23T13:22:26;2.55;82.96
68026;SHT31;54819;48.030;14.710;2023-01-23T13:24:59;2.56;83.10
68026;SHT31;54819;48.030;14.710;2023-01-23T13:49:27;2.53;83.77
68026;SHT31;54819;48.030;14.710;2023-01-23T13:52:36;2.54;83.56
68026;SHT31;54819;48.030;14.710;2023-01-23T13:55:41;2.58;83.73
68026;SHT31;54819;48.030;14.710;2023-01-23T13:58:42;2.66;83.70
68026;SHT31;54819;48.030;14.710;2023-01-23T14:01:23;2.72;83.59
68026;SHT31;54819;48.030;14.710;2023-01-23T14:04:25;2.73;83.45
68026;SHT31;54819;48.030;14.710;2023-01-23T14:07:28;2.78;83.38
68026;SHT31;54819;48.030;14.710;2023-01-23T14:13:08;2.71;83.12
68026;SHT31;54819;48.030;14.710;2023-01-23T14:15:51;2.64;83.36
68026;SHT31;54819;48.030;14.710;2023-01-23T14:18:55;2.62;83.39
68026;SHT31;54819;48.030;14.710;2023-01-23T14:21:39;2.62;83.37
68026;SHT31;54819;48.030;14.710;2023-01-23T14:24:21;2.61;83.20
68026;SHT31;54819;48.030;14.710;2023-01-23T14:26:57;2.61;83.11
68026;SHT31;54819;48.030;14.710;2023-01-23T14:29:33;2.53;83.04
68026;SHT31;54819;48.030;14.710;2023-01-23T14:32:00;2.49;83.10
68026;SHT31;54819;48.030;14.710;2023-01-23T14:34:27;2.44;83.19
68026;SHT31;54819;48.030;14.710;2023-01-23T14:39:28;2.33;83.68
68026;SHT31;54819;48.030;14.710;2023-01-23T14:41:57;2.27;83.82
68026;SHT31;54819;48.030;14.710;2023-01-23T14:44:31;2.24;83.96
68026;SHT31;54819;48.030;14.710;2023-01-23T14:47:14;2.26;83.73
68026;SHT31;54819;48.030;14.710;2023-01-23T14:49:43;2.26;83.65
68026;SHT31;54819;48.030;14.710;2023-01-23T14:52:19;2.23;84.25
68026;SHT31;54819;48.030;14.710;2023-01-23T14:54:48;2.24;83.96
68026;SHT31;54819;48.030;14.710;2023-01-23T14:57:20;2.21;84.25
68026;SHT31;54819;48.030;14.710;2023-01-23T14:59:49;2.23;84.14
68026;SHT31;54819;48.030;14.710;2023-01-23T15:05:16;2.30;84.11
68026;SHT31;54819;48.030;14.710;2023-01-23T15:13:53;2.35;84.49
68026;SHT31;54819;48.030;14.710;2023-01-23T15:16:41;2.42;84.38
68026;SHT31;54819;48.030;14.710;2023-01-23T15:19:07;2.49;84.21
68026;SHT31;54819;48.030;14.710;2023-01-23T15:21:49;2.50;84.20
68026;SHT31;54819;48.030;14.710;2023-01-23T15:24:18;2.55;84.19
68026;SHT31;54819;48.030;14.710;2023-01-23T15:26:55;2.55;84.23
68026;SHT31;54819;48.030;14.710;2023-01-23T15:29:24;2.57;84.02
68026;SHT31;54819;48.030;14.710;2023-01-23T15:31:55;2.53;84.19
68026;SHT31;54819;48.030;14.710;2023-01-23T15:34:32;2.51;84.25
68026;SHT31;54819;48.030;14.710;2023-01-23T15:42:30;2.36;84.46
68026;SHT31;54819;48.030;14.710;2023-01-23T15:44:59;2.34;84.40
68026;SHT31;54819;48.030;14.710;2023-01-23T15:47:30;2.29;84.53
68026;SHT31;54819;48.030;14.710;2023-01-23T15:49:58;2.26;84.48
68026;SHT31;54819;48.030;14.710;2023-01-23T15:54:59;2.16;85.03
68026;SHT31;54819;48.030;14.710;2023-01-23T15:57:28;2.07;85.41
68026;SHT31;54819;48.030;14.710;2023-01-23T15:59:55;2.04;85.69
68026;SHT31;54819;48.030;14.710;2023-01-23T16:02:22;2.05;85.64
68026;SHT31;54819;48.030;14.710;2023-01-23T16:04:57;2.06;85.66
68026;SHT31;54819;48.030;14.710;2023-01-23T16:07:25;2.05;85.70
68026;SHT31;54819;48.030;14.710;2023-01-23T16:09:57;2.05;85.86
68026;SHT31;54819;48.030;14.710;2023-01-23T16:12:28;2.06;86.05
68026;SHT31;54819;48.030;14.710;2023-01-23T16:14:56;2.09;85.96
68026;SHT31;54819;48.030;14.710;2023-01-23T16:17:23;2.10;85.74
68026;SHT31;54819;48.030;14.710;2023-01-23T16:19:49;2.10;85.50
68026;SHT31;54819;48.030;14.710;2023-01-23T16:22:20;2.12;85.62
68026;SHT31;54819;48.030;14.710;2023-01-23T16:24:51;2.13;85.79
68026;SHT31;54819;48.030;14.710;2023-01-23T16:27:19;2.15;85.93
68026;SHT31;54819;48.030;14.710;2023-01-23T16:29:53;2.13;85.99
68026;SHT31;54819;48.030;14.710;2023-01-23T16:32:21;2.13;86.07
68026;SHT31;54819;48.030;14.710;2023-01-23T16:34:48;2.08;86.03
68026;SHT31;54819;48.030;14.710;2023-01-23T16:37:16;2.03;86.08
68026;SHT31;54819;48.030;14.710;2023-01-23T16:39:44;1.96;86.21
68026;SHT31;54819;48.030;14.710;2023-01-23T16:42:14;1.90;86.47
68026;SHT31;54819;48.030;14.710;2023-01-23T16:44:43;1.86;86.71
68026;SHT31;54819;48.030;14.710;2023-01-23T16:47:10;1.83;86.79
68026;SHT31;54819;48.030;14.710;2023-01-23T16:49:37;1.83;86.79
68026;SHT31;54819;48.030;14.710;2023-01-23T16:52:17;1.82;86.69
68026;SHT31;54819;48.030;14.710;2023-01-23T16:54:45;1.82;87.04
68026;SHT31;54819;48.030;14.710;2023-01-23T16:57:13;1.83;87.04
68026;SHT31;54819;48.030;14.710;2023-01-23T16:59:44;1.85;87.20
68026;SHT31;54819;48.030;14.710;2023-01-23T17:02:19;1.88;87.52
68026;SHT31;54819;48.030;14.710;2023-01-23T17:04:48;1.88;87.48
68026;SHT31;54819;48.030;14.710;2023-01-23T17:07:16;1.90;87.49
68026;SHT31;54819;48.030;14.710;2023-01-23T17:09:46;1.91;87.43
68026;SHT31;54819;48.030;14.710;2023-01-23T17:12:18;1.97;87.40
68026;SHT31;54819;48.030;14.710;2023-01-23T17:14:49;1.99;87.32
68026;SHT31;54819;48.030;14.710;2023-01-23T17:17:23;2.01;87.25
68026;SHT31;54819;48.030;14.710;2023-01-23T17:19:59;2.00;87.07
68026;SHT31;54819;48.030;14.710;2023-01-23T17:22:35;2.00;86.95
68026;SHT31;54819;48.030;14.710;2023-01-23T17:25:15;1.96;86.83
68026;SHT31;54819;48.030;14.710;2023-01-23T17:27:44;1.91;86.72
68026;SHT31;54819;48.030;14.710;2023-01-23T17:30:31;1.87;86.95
68026;SHT31;54819;48.030;14.710;2023-01-23T17:32:59;1.86;87.05
68026;SHT31;54819;48.030;14.710;2023-01-23T17:35:33;1.82;86.95
68026;SHT31;54819;48.030;14.710;2023-01-23T17:38:03;1.83;87.17
68026;SHT31;54819;48.030;14.710;2023-01-23T17:40:30;1.81;87.07
68026;SHT31;54819;48.030;14.710;2023-01-23T17:42:58;1.77;86.97
68026;SHT31;54819;48.030;14.710;2023-01-23T17:45:25;1.71;87.36
68026;SHT31;54819;48.030;14.710;2023-01-23T17:47:54;1.70;87.39
68026;SHT31;54819;48.030;14.710;2023-01-23T17:50:23;1.70;87.24
68026;SHT31;54819;48.030;14.710;2023-01-23T17:52:52;1.71;87.82
68026;SHT31;54819;48.030;14.710;2023-01-23T17:55:21;1.71;87.81
68026;SHT31;54819;48.030;14.710;2023-01-23T17:57:51;1.73;87.69
68026;SHT31;54819;48.030;14.710;2023-01-23T18:00:19;1.76;87.94
68026;SHT31;54819;48.030;14.710;2023-01-23T18:02:47;1.79;87.88
68026;SHT31;54819;48.030;14.710;2023-01-23T18:05:21;1.83;87.87
68026;SHT31;54819;48.030;14.710;2023-01-23T18:07:48;1.91;87.69
68026;SHT31;54819;48.030;14.710;2023-01-23T18:10:20;1.99;87.57